sensor_id;sensor_type;location;lat;lon;timestamp;temperature;humidity
62912;DHT22;49111;51.028;4.218;2024-02-14T00:00:08;11.00;99.90
62912;DHT22;49111;51.028;4.218;2024-02-14T00:02:48;11.00;99.90
62912;DHT22;49111;51.028;4.218;2024-02-14T00:05:17;11.00;99.90
62912;DHT22;49111;51.028;4.218;2024-02-14T00:07:45;10.90;99.90
62912;DHT22;49111;51.028;4.218;2024-02-14T00:10:10;10.90;99.90
62912;DHT22;49111;51.028;4.218;2024-02-14T00:12:37;10.80;99.90
62912;DHT22;49111;51.028;4.218;2024-02-14T00:15:03;10.80;99.90
62912;DHT22;49111;51.028;4.218;2024-02-14T00:17:31;10.90;99.90
62912;DHT22;49111;51.028;4.218;2024-02-14T00:19:57;10.90;99.90
62912;DHT22;49111;51.028;4.218;2024-02-14T00:22:24;10.90;99.90
62912;DHT22;49111;51.028;4.218;2024-02-14T00:24:50;11.00;99.90
62912;DHT22;49111;51.028;4.218;2024-02-14T00:27:15;11.00;99.90
62912;DHT22;49111;51.028;4.218;2024-02-14T00:29:43;10.90;99.90
62912;DHT22;49111;51.028;4.218;2024-02-14T00:32:14;11.00;99.90
62912;DHT22;49111;51.028;4.218;2024-02-14T00:34:40;11.00;99.90
62912;DHT22;49111;51.028;4.218;2024-02-14T00:37:06;11.00;99.90
62912;DHT22;49111;51.028;4.218;2024-02-14T00:39:32;11.10;99.90
62912;DHT22;49111;51.028;4.218;2024-02-14T00:41:58;11.00;99.90
62912;DHT22;49111;51.028;4.218;2024-02-14T00:44:24;11.00;99.90
62912;DHT22;49111;51.028;4.218;2024-02-14T00:46:56;11.00;99.90
62912;DHT22;49111;51.028;4.218;2024-02-14T00:49:24;11.00;99.90
62912;DHT22;49111;51.028;4.218;2024-02-14T00:51:50;11.10;99.90
62912;DHT22;49111;51.028;4.218;2024-02-14T00:54:16;11.10;99.90
62912;DHT22;49111;51.028;4.218;2024-02-14T00:56:45;11.10;99.90
62912;DHT22;49111;51.028;4.218;2024-02-14T00:59:11;11.10;99.90
62912;DHT22;49111;51.028;4.218;2024-02-14T01:01:38;11.10;99.90
62912;DHT22;49111;51.028;4.218;2024-02-14T01:04:04;11.20;99.90
62912;DHT22;49111;51.028;4.218;2024-02-14T01:06:31;11.10;99.90
62912;DHT22;49111;51.028;4.218;2024-02-14T01:08:57;11.10;99.90
62912;DHT22;49111;51.028;4.218;2024-02-14T01:11:23;11.20;99.90
62912;DHT22;49111;51.028;4.218;2024-02-14T01:13:48;11.20;99.90
62912;DHT22;49111;51.028;4.218;2024-02-14T01:16:14;11.20;99.90
62912;DHT22;49111;51.028;4.218;2024-02-14T01:18:40;11.20;99.90
62912;DHT22;49111;51.028;4.218;2024-02-14T01:21:06;11.20;99.90
62912;DHT22;49111;51.028;4.218;2024-02-14T01:23:33;11.30;99.90
62912;DHT22;49111;51.028;4.218;2024-02-14T01:25:58;11.30;99.90
62912;DHT22;49111;51.028;4.218;2024-02-14T01:28:24;11.30;99.90
62912;DHT22;49111;51.028;4.218;2024-02-14T01:30:53;11.20;99.90
62912;DHT22;49111;51.028;4.218;2024-02-14T01:33:19;11.20;99.90
62912;DHT22;49111;51.028;4.218;2024-02-14T01:35:45;11.30;99.90
62912;DHT22;49111;51.028;4.218;2024-02-14T01:38:11;11.30;99.90
62912;DHT22;49111;51.028;4.218;2024-02-14T01:40:38;11.40;99.90
62912;DHT22;49111;51.028;4.218;2024-02-14T01:43:07;11.30;99.90
62912;DHT22;49111;51.028;4.218;2024-02-14T01:45:34;11.30;99.90
62912;DHT22;49111;51.028;4.218;2024-02-14T01:48:01;11.30;99.90
62912;DHT22;49111;51.028;4.218;2024-02-14T01:50:27;11.40;99.90
62912;DHT22;49111;51.028;4.218;2024-02-14T01:53:00;11.40;99.90
62912;DHT22;49111;51.028;4.218;2024-02-14T01:55:28;11.40;99.90
62912;DHT22;49111;51.028;4.218;2024-02-14T01:57:54;11.30;99.90
62912;DHT22;49111;51.028;4.218;2024-02-14T02:00:20;11.20;99.90
62912;DHT22;49111;51.028;4.218;2024-02-14T02:02:46;11.20;99.90
62912;DHT22;49111;51.028;4.218;2024-02-14T02:05:17;11.20;99.90
62912;DHT22;49111;51.028;4.218;2024-02-14T02:07:44;11.30;99.90
62912;DHT22;49111;51.028;4.218;2024-02-14T02:10:14;11.20;99.90
62912;DHT22;49111;51.028;4.218;2024-02-14T02:12:40;11.20;99.90
62912;DHT22;49111;51.028;4.218;2024-02-14T02:15:06;11.30;99.90
62912;DHT22;49111;51.028;4.218;2024-02-14T02:17:33;11.20;99.90
62912;DHT22;49111;51.028;4.218;2024-02-14T02:20:02;11.30;99.90
62912;DHT22;49111;51.028;4.218;2024-02-14T02:22:28;11.40;99.90
62912;DHT22;49111;51.028;4.218;2024-02-14T02:25:03;11.40;99.90
62912;DHT22;49111;51.028;4.218;2024-02-14T02:27:33;11.50;99.90
62912;DHT22;49111;51.028;4.218;2024-02-14T02:30:07;11.50;99.90
62912;DHT22;49111;51.028;4.218;2024-02-14T02:32:34;11.50;99.90
62912;DHT22;49111;51.028;4.218;2024-02-14T02:35:02;11.50;99.90
62912;DHT22;49111;51.028;4.218;2024-02-14T02:37:27;11.50;99.90
62912;DHT22;49111;51.028;4.218;2024-02-14T02:39:56;11.60;99.90
62912;DHT22;49111;51.028;4.218;2024-02-14T02:42:22;11.50;99.90
62912;DHT22;49111;51.028;4.218;2024-02-14T02:44:52;11.40;99.90
62912;DHT22;49111;51.028;4.218;2024-02-14T02:47:18;11.30;99.90
62912;DHT22;49111;51.028;4.218;2024-02-14T02:49:44;11.30;99.90
62912;DHT22;49111;51.028;4.218;2024-02-14T02:52:11;11.30;99.90
62912;DHT22;49111;51.028;4.218;2024-02-14T02:54:37;11.30;99.90
62912;DHT22;49111;51.028;4.218;2024-02-14T02:57:10;11.40;99.90
62912;DHT22;49111;51.028;4.218;2024-02-14T02:59:36;11.40;99.90
62912;DHT22;49111;51.028;4.218;2024-02-14T03:02:02;11.30;99.90
62912;DHT22;49111;51.028;4.218;2024-02-14T03:04:29;11.30;99.90
62912;DHT22;49111;51.028;4.218;2024-02-14T03:06:58;11.20;99.90
62912;DHT22;49111;51.028;4.218;2024-02-14T03:09:24;11.30;99.90
62912;DHT22;49111;51.028;4.218;2024-02-14T03:11:52;11.40;99.90
62912;DHT22;49111;51.028;4.218;2024-02-14T03:14:17;11.50;99.90
62912;DHT22;49111;51.028;4.218;2024-02-14T03:16:43;11.50;99.90
62912;DHT22;49111;51.028;4.218;2024-02-14T03:19:09;11.50;99.90
62912;DHT22;49111;51.028;4.218;2024-02-14T03:21:35;11.50;99.90
62912;DHT22;49111;51.028;4.218;2024-02-14T03:24:02;11.40;99.90
62912;DHT22;49111;51.028;4.218;2024-02-14T03:26:31;11.50;99.90
62912;DHT22;49111;51.028;4.218;2024-02-14T03:29:00;11.60;99.90
62912;DHT22;49111;51.028;4.218;2024-02-14T03:31:26;11.50;99.90
62912;DHT22;49111;51.028;4.218;2024-02-14T03:33:52;11.50;99.90
62912;DHT22;49111;51.028;4.218;2024-02-14T03:36:19;11.50;99.90
62912;DHT22;49111;51.028;4.218;2024-02-14T03:38:45;11.50;99.90
62912;DHT22;49111;51.028;4.218;2024-02-14T03:41:12;11.50;99.90
62912;DHT22;49111;51.028;4.218;2024-02-14T03:43:41;11.40;99.90
62912;DHT22;49111;51.028;4.218;2024-02-14T03:46:07;11.40;99.90
62912;DHT22;49111;51.028;4.218;2024-02-14T03:48:33;11.50;99.90
62912;DHT22;49111;51.028;4.218;2024-02-14T03:51:00;11.70;99.90
62912;DHT22;49111;51.028;4.218;2024-02-14T03:53:25;11.70;99.90
62912;DHT22;49111;51.028;4.218;2024-02-14T03:55:51;11.70;99.90
62912;DHT22;49111;51.028;4.218;2024-02-14T03:58:19;11.70;99.90
62912;DHT22;49111;51.028;4.218;2024-02-14T04:00:49;11.70;99.90
62912;DHT22;49111;51.028;4.218;2024-02-14T04:03:16;11.80;99.90
62912;DHT22;49111;51.028;4.218;2024-02-14T04:05:42;11.80;99.90
62912;DHT22;49111;51.028;4.218;2024-02-14T04:08:08;11.70;99.90
62912;DHT22;49111;51.028;4.218;2024-02-14T04:10:39;11.60;99.90
62912;DHT22;49111;51.028;4.218;2024-02-14T04:13:05;11.60;99.90
62912;DHT22;49111;51.028;4.218;2024-02-14T04:15:31;11.60;99.90
62912;DHT22;49111;51.028;4.218;2024-02-14T04:17:57;11.60;99.90
62912;DHT22;49111;51.028;4.218;2024-02-14T04:20:25;11.60;99.90
62912;DHT22;49111;51.028;4.218;2024-02-14T04:22:51;11.60;99.90
62912;DHT22;49111;51.028;4.218;2024-02-14T04:25:17;11.60;99.90
62912;DHT22;49111;51.028;4.218;2024-02-14T04:27:44;11.60;99.90
62912;DHT22;49111;51.028;4.218;2024-02-14T04:30:10;11.60;99.90
62912;DHT22;49111;51.028;4.218;2024-02-14T04:32:36;11.50;99.90
62912;DHT22;49111;51.028;4.218;2024-02-14T04:35:02;11.60;99.90
62912;DHT22;49111;51.028;4.218;2024-02-14T04:37:28;11.70;99.90
62912;DHT22;49111;51.028;4.218;2024-02-14T04:39:55;11.70;99.90
62912;DHT22;49111;51.028;4.218;2024-02-14T04:42:21;11.70;99.90
62912;DHT22;49111;51.028;4.218;2024-02-14T04:44:46;11.80;99.90
62912;DHT22;49111;51.028;4.218;2024-02-14T04:47:12;11.80;99.90
62912;DHT22;49111;51.028;4.218;2024-02-14T04:49:38;11.80;99.90
62912;DHT22;49111;51.028;4.218;2024-02-14T04:52:04;11.80;99.90
62912;DHT22;49111;51.028;4.218;2024-02-14T04:54:30;11.80;99.90
62912;DHT22;49111;51.028;4.218;2024-02-14T04:56:56;11.80;99.90
62912;DHT22;49111;51.028;4.218;2024-02-14T04:59:22;11.70;99.90
62912;DHT22;49111;51.028;4.218;2024-02-14T05:01:47;11.80;99.90
62912;DHT22;49111;51.028;4.218;2024-02-14T05:04:13;11.70;99.90
62912;DHT22;49111;51.028;4.218;2024-02-14T05:06:40;11.70;99.90
62912;DHT22;49111;51.028;4.218;2024-02-14T05:09:07;11.80;99.90
62912;DHT22;49111;51.028;4.218;2024-02-14T05:11:33;11.90;99.90
62912;DHT22;49111;51.028;4.218;2024-02-14T05:13:59;11.90;99.90
62912;DHT22;49111;51.028;4.218;2024-02-14T05:16:27;12.00;99.90
62912;DHT22;49111;51.028;4.218;2024-02-14T05:18:53;12.00;99.90
62912;DHT22;49111;51.028;4.218;2024-02-14T05:21:22;11.90;99.90
62912;DHT22;49111;51.028;4.218;2024-02-14T05:23:48;11.90;99.90
62912;DHT22;49111;51.028;4.218;2024-02-14T05:26:14;11.90;99.90
62912;DHT22;49111;51.028;4.218;2024-02-14T05:28:40;11.90;99.90
62912;DHT22;49111;51.028;4.218;2024-02-14T05:31:05;11.90;99.90
62912;DHT22;49111;51.028;4.218;2024-02-14T05:33:31;11.90;99.90
62912;DHT22;49111;51.028;4.218;2024-02-14T05:35:57;11.90;99.90
62912;DHT22;49111;51.028;4.218;2024-02-14T05:38:23;11.80;99.90
62912;DHT22;49111;51.028;4.218;2024-02-14T05:40:49;11.90;99.90
62912;DHT22;49111;51.028;4.218;2024-02-14T05:43:16;11.80;99.90
62912;DHT22;49111;51.028;4.218;2024-02-14T05:45:43;11.80;99.90
62912;DHT22;49111;51.028;4.218;2024-02-14T05:48:10;11.90;99.90
62912;DHT22;49111;51.028;4.218;2024-02-14T05:50:36;11.90;99.90
62912;DHT22;49111;51.028;4.218;2024-02-14T05:53:03;11.90;99.90
62912;DHT22;49111;51.028;4.218;2024-02-14T05:55:29;11.90;99.90
62912;DHT22;49111;51.028;4.218;2024-02-14T05:57:55;11.90;99.90
62912;DHT22;49111;51.028;4.218;2024-02-14T06:00:23;12.00;99.90
62912;DHT22;49111;51.028;4.218;2024-02-14T06:02:48;11.90;99.90
62912;DHT22;49111;51.028;4.218;2024-02-14T06:05:16;12.00;99.90
62912;DHT22;49111;51.028;4.218;2024-02-14T06:07:42;12.00;99.90
62912;DHT22;49111;51.028;4.218;2024-02-14T06:10:11;12.00;99.90
62912;DHT22;49111;51.028;4.218;2024-02-14T06:12:37;12.10;99.90
62912;DHT22;49111;51.028;4.218;2024-02-14T06:15:03;12.10;99.90
62912;DHT22;49111;51.028;4.218;2024-02-14T06:17:29;12.20;99.90
62912;DHT22;49111;51.028;4.218;2024-02-14T06:19:55;12.10;99.90
62912;DHT22;49111;51.028;4.218;2024-02-14T06:22:21;12.10;99.90
62912;DHT22;49111;51.028;4.218;2024-02-14T06:24:47;12.10;99.90
62912;DHT22;49111;51.028;4.218;2024-02-14T06:27:16;12.20;99.90
62912;DHT22;49111;51.028;4.218;2024-02-14T06:29:45;12.10;99.90
62912;DHT22;49111;51.028;4.218;2024-02-14T06:32:14;12.20;99.90
62912;DHT22;49111;51.028;4.218;2024-02-14T06:34:40;12.20;99.90
62912;DHT22;49111;51.028;4.218;2024-02-14T06:37:06;12.10;99.90
62912;DHT22;49111;51.028;4.218;2024-02-14T06:39:31;12.10;99.90
62912;DHT22;49111;51.028;4.218;2024-02-14T06:41:57;12.00;99.90
62912;DHT22;49111;51.028;4.218;2024-02-14T06:44:24;12.20;99.90
62912;DHT22;49111;51.028;4.218;2024-02-14T06:46:50;12.20;99.90
62912;DHT22;49111;51.028;4.218;2024-02-14T06:49:16;12.20;99.90
62912;DHT22;49111;51.028;4.218;2024-02-14T06:51:42;12.20;99.90
62912;DHT22;49111;51.028;4.218;2024-02-14T06:54:08;12.30;99.90
62912;DHT22;49111;51.028;4.218;2024-02-14T06:56:35;12.20;99.90
62912;DHT22;49111;51.028;4.218;2024-02-14T06:59:01;12.20;99.90
62912;DHT22;49111;51.028;4.218;2024-02-14T07:01:28;12.20;99.90
62912;DHT22;49111;51.028;4.218;2024-02-14T07:03:54;12.30;99.90
62912;DHT22;49111;51.028;4.218;2024-02-14T07:06:20;12.40;99.90
62912;DHT22;49111;51.028;4.218;2024-02-14T07:08:46;12.40;99.90
62912;DHT22;49111;51.028;4.218;2024-02-14T07:11:13;12.30;99.90
62912;DHT22;49111;51.028;4.218;2024-02-14T07:13:39;12.20;99.90
62912;DHT22;49111;51.028;4.218;2024-02-14T07:16:05;12.30;99.90
62912;DHT22;49111;51.028;4.218;2024-02-14T07:18:31;12.30;99.90
62912;DHT22;49111;51.028;4.218;2024-02-14T07:20:57;12.30;99.90
62912;DHT22;49111;51.028;4.218;2024-02-14T07:23:23;12.30;99.90
62912;DHT22;49111;51.028;4.218;2024-02-14T07:25:48;12.40;99.90
62912;DHT22;49111;51.028;4.218;2024-02-14T07:28:14;12.50;99.90
62912;DHT22;49111;51.028;4.218;2024-02-14T07:30:40;12.60;99.90
62912;DHT22;49111;51.028;4.218;2024-02-14T07:33:06;12.40;99.90
62912;DHT22;49111;51.028;4.218;2024-02-14T07:35:33;12.40;99.90
62912;DHT22;49111;51.028;4.218;2024-02-14T07:37:59;12.50;99.90
62912;DHT22;49111;51.028;4.218;2024-02-14T07:40:25;12.50;99.90
62912;DHT22;49111;51.028;4.218;2024-02-14T07:42:52;12.50;99.90
62912;DHT22;49111;51.028;4.218;2024-02-14T07:45:18;12.70;99.90
62912;DHT22;49111;51.028;4.218;2024-02-14T07:47:44;12.70;99.90
62912;DHT22;49111;51.028;4.218;2024-02-14T07:50:10;12.60;99.90
62912;DHT22;49111;51.028;4.218;2024-02-14T07:52:36;12.60;99.90
62912;DHT22;49111;51.028;4.218;2024-02-14T07:55:02;12.60;99.90
62912;DHT22;49111;51.028;4.218;2024-02-14T07:57:28;12.60;99.90
62912;DHT22;49111;51.028;4.218;2024-02-14T07:59:54;12.50;99.90
62912;DHT22;49111;51.028;4.218;2024-02-14T08:02:20;12.60;99.90
62912;DHT22;49111;51.028;4.218;2024-02-14T08:04:46;12.50;99.90
62912;DHT22;49111;51.028;4.218;2024-02-14T08:07:12;12.50;99.90
62912;DHT22;49111;51.028;4.218;2024-02-14T08:09:38;12.50;99.90
62912;DHT22;49111;51.028;4.218;2024-02-14T08:12:05;12.60;99.90
62912;DHT22;49111;51.028;4.218;2024-02-14T08:14:32;12.50;99.90
62912;DHT22;49111;51.028;4.218;2024-02-14T08:16:58;12.50;99.90
62912;DHT22;49111;51.028;4.218;2024-02-14T08:19:24;12.40;99.90
62912;DHT22;49111;51.028;4.218;2024-02-14T08:21:49;12.40;99.90
62912;DHT22;49111;51.028;4.218;2024-02-14T08:24:15;12.40;99.90
62912;DHT22;49111;51.028;4.218;2024-02-14T08:26:43;12.50;99.90
62912;DHT22;49111;51.028;4.218;2024-02-14T08:29:08;12.40;99.90
62912;DHT22;49111;51.028;4.218;2024-02-14T08:31:37;12.50;99.90
62912;DHT22;49111;51.028;4.218;2024-02-14T08:34:03;12.60;99.90
62912;DHT22;49111;51.028;4.218;2024-02-14T08:36:29;12.60;99.90
62912;DHT22;49111;51.028;4.218;2024-02-14T08:38:54;12.60;99.90
62912;DHT22;49111;51.028;4.218;2024-02-14T08:41:20;12.60;99.90
62912;DHT22;49111;51.028;4.218;2024-02-14T08:43:46;12.60;99.90
62912;DHT22;49111;51.028;4.218;2024-02-14T08:46:12;12.60;99.90
62912;DHT22;49111;51.028;4.218;2024-02-14T08:48:38;12.70;99.90
62912;DHT22;49111;51.028;4.218;2024-02-14T08:51:12;12.70;99.90
62912;DHT22;49111;51.028;4.218;2024-02-14T08:53:39;12.80;99.90
62912;DHT22;49111;51.028;4.218;2024-02-14T08:56:05;12.80;99.90
62912;DHT22;49111;51.028;4.218;2024-02-14T08:58:31;12.80;99.90
62912;DHT22;49111;51.028;4.218;2024-02-14T09:00:57;12.80;99.90
62912;DHT22;49111;51.028;4.218;2024-02-14T09:03:23;12.80;99.90
62912;DHT22;49111;51.028;4.218;2024-02-14T09:05:49;12.80;99.90
62912;DHT22;49111;51.028;4.218;2024-02-14T09:08:16;12.90;99.90
62912;DHT22;49111;51.028;4.218;2024-02-14T09:10:41;13.00;99.90
62912;DHT22;49111;51.028;4.218;2024-02-14T09:13:07;13.00;99.90
62912;DHT22;49111;51.028;4.218;2024-02-14T09:15:33;12.90;99.90
62912;DHT22;49111;51.028;4.218;2024-02-14T09:17:59;13.00;99.90
62912;DHT22;49111;51.028;4.218;2024-02-14T09:20:26;13.10;99.90
62912;DHT22;49111;51.028;4.218;2024-02-14T09:22:52;13.10;99.90
62912;DHT22;49111;51.028;4.218;2024-02-14T09:25:19;13.10;99.90
62912;DHT22;49111;51.028;4.218;2024-02-14T09:27:45;13.10;99.90
62912;DHT22;49111;51.028;4.218;2024-02-14T09:30:13;13.10;99.90
62912;DHT22;49111;51.028;4.218;2024-02-14T09:32:39;13.20;99.90
62912;DHT22;49111;51.028;4.218;2024-02-14T09:35:05;13.20;99.90
62912;DHT22;49111;51.028;4.218;2024-02-14T09:37:32;13.10;99.90
62912;DHT22;49111;51.028;4.218;2024-02-14T09:39:58;13.10;99.90
62912;DHT22;49111;51.028;4.218;2024-02-14T09:42:34;13.20;99.90
62912;DHT22;49111;51.028;4.218;2024-02-14T09:45:06;13.20;99.90
62912;DHT22;49111;51.028;4.218;2024-02-14T09:47:33;13.20;99.90
62912;DHT22;49111;51.028;4.218;2024-02-14T09:50:00;13.10;99.90
62912;DHT22;49111;51.028;4.218;2024-02-14T09:52:27;13.20;99.90
62912;DHT22;49111;51.028;4.218;2024-02-14T09:54:53;13.20;99.90
62912;DHT22;49111;51.028;4.218;2024-02-14T09:57:21;13.10;99.90
62912;DHT22;49111;51.028;4.218;2024-02-14T09:59:49;13.10;99.90
62912;DHT22;49111;51.028;4.218;2024-02-14T10:02:17;13.00;99.90
62912;DHT22;49111;51.028;4.218;2024-02-14T10:04:43;13.10;99.90
62912;DHT22;49111;51.028;4.218;2024-02-14T10:07:09;13.10;99.90
62912;DHT22;49111;51.028;4.218;2024-02-14T10:09:42;13.10;99.90
62912;DHT22;49111;51.028;4.218;2024-02-14T10:12:08;13.10;99.90
62912;DHT22;49111;51.028;4.218;2024-02-14T10:14:37;13.10;99.90
62912;DHT22;49111;51.028;4.218;2024-02-14T10:17:06;13.10;99.90
62912;DHT22;49111;51.028;4.218;2024-02-14T10:19:35;13.10;99.90
62912;DHT22;49111;51.028;4.218;2024-02-14T10:22:01;13.20;99.90
62912;DHT22;49111;51.028;4.218;2024-02-14T10:24:31;13.20;99.90
62912;DHT22;49111;51.028;4.218;2024-02-14T10:26:59;13.30;99.90
62912;DHT22;49111;51.028;4.218;2024-02-14T10:29:26;13.30;99.90
62912;DHT22;49111;51.028;4.218;2024-02-14T10:31:55;13.30;99.90
62912;DHT22;49111;51.028;4.218;2024-02-14T10:34:25;13.30;99.90
62912;DHT22;49111;51.028;4.218;2024-02-14T10:36:53;13.30;99.90
62912;DHT22;49111;51.028;4.218;2024-02-14T10:39:22;13.40;99.90
62912;DHT22;49111;51.028;4.218;2024-02-14T10:41:51;13.40;99.90
62912;DHT22;49111;51.028;4.218;2024-02-14T10:44:17;13.40;99.90
62912;DHT22;49111;51.028;4.218;2024-02-14T10:46:44;13.40;99.90
62912;DHT22;49111;51.028;4.218;2024-02-14T10:49:12;13.40;99.90
62912;DHT22;49111;51.028;4.218;2024-02-14T10:51:43;13.30;99.90
62912;DHT22;49111;51.028;4.218;2024-02-14T10:54:12;13.30;99.90
62912;DHT22;49111;51.028;4.218;2024-02-14T10:56:39;13.40;99.90
62912;DHT22;49111;51.028;4.218;2024-02-14T10:59:08;13.40;99.90
62912;DHT22;49111;51.028;4.218;2024-02-14T11:01:37;13.30;99.90
62912;DHT22;49111;51.028;4.218;2024-02-14T11:04:03;13.40;99.90
62912;DHT22;49111;51.028;4.218;2024-02-14T11:06:30;13.40;99.90
62912;DHT22;49111;51.028;4.218;2024-02-14T11:09:03;13.40;99.90
62912;DHT22;49111;51.028;4.218;2024-02-14T11:11:33;13.40;99.90
62912;DHT22;49111;51.028;4.218;2024-02-14T11:13:59;13.40;99.90
62912;DHT22;49111;51.028;4.218;2024-02-14T11:16:26;13.30;99.90
62912;DHT22;49111;51.028;4.218;2024-02-14T11:19:05;13.30;99.90
62912;DHT22;49111;51.028;4.218;2024-02-14T11:21:35;13.30;99.90
62912;DHT22;49111;51.028;4.218;2024-02-14T11:24:06;13.30;99.90
62912;DHT22;49111;51.028;4.218;2024-02-14T11:26:49;13.30;99.90
62912;DHT22;49111;51.028;4.218;2024-02-14T11:29:17;13.30;99.90
62912;DHT22;49111;51.028;4.218;2024-02-14T11:31:44;13.40;99.90
62912;DHT22;49111;51.028;4.218;2024-02-14T11:34:14;13.50;99.90
62912;DHT22;49111;51.028;4.218;2024-02-14T11:36:44;13.40;99.90
62912;DHT22;49111;51.028;4.218;2024-02-14T11:39:11;13.40;99.90
62912;DHT22;49111;51.028;4.218;2024-02-14T11:41:40;13.40;99.90
62912;DHT22;49111;51.028;4.218;2024-02-14T11:44:09;13.50;99.90
62912;DHT22;49111;51.028;4.218;2024-02-14T11:46:36;13.50;99.90
62912;DHT22;49111;51.028;4.218;2024-02-14T11:49:04;13.50;99.90
62912;DHT22;49111;51.028;4.218;2024-02-14T11:51:33;13.50;99.90
62912;DHT22;49111;51.028;4.218;2024-02-14T11:54:01;13.60;99.90
62912;DHT22;49111;51.028;4.218;2024-02-14T11:56:37;13.60;99.90
62912;DHT22;49111;51.028;4.218;2024-02-14T11:59:05;13.60;99.90
62912;DHT22;49111;51.028;4.218;2024-02-14T12:01:35;13.80;99.90
62912;DHT22;49111;51.028;4.218;2024-02-14T12:04:02;13.80;99.90
62912;DHT22;49111;51.028;4.218;2024-02-14T12:06:30;13.80;99.90
62912;DHT22;49111;51.028;4.218;2024-02-14T12:09:05;13.90;99.90
62912;DHT22;49111;51.028;4.218;2024-02-14T12:11:35;13.90;99.90
62912;DHT22;49111;51.028;4.218;2024-02-14T12:14:08;13.90;99.90
62912;DHT22;49111;51.028;4.218;2024-02-14T12:16:37;13.90;99.90
62912;DHT22;49111;51.028;4.218;2024-02-14T12:19:13;13.90;99.90
62912;DHT22;49111;51.028;4.218;2024-02-14T12:21:42;13.90;99.90
62912;DHT22;49111;51.028;4.218;2024-02-14T12:24:11;14.00;99.90
62912;DHT22;49111;51.028;4.218;2024-02-14T12:26:40;14.00;99.90
62912;DHT22;49111;51.028;4.218;2024-02-14T12:29:07;14.10;99.90
62912;DHT22;49111;51.028;4.218;2024-02-14T12:31:34;14.10;99.90
62912;DHT22;49111;51.028;4.218;2024-02-14T12:34:03;14.10;99.90
62912;DHT22;49111;51.028;4.218;2024-02-14T12:36:31;14.00;99.90
62912;DHT22;49111;51.028;4.218;2024-02-14T12:39:03;14.00;99.90
62912;DHT22;49111;51.028;4.218;2024-02-14T12:41:30;14.10;99.90
62912;DHT22;49111;51.028;4.218;2024-02-14T12:43:57;14.10;99.90
62912;DHT22;49111;51.028;4.218;2024-02-14T12:46:23;14.20;99.90
62912;DHT22;49111;51.028;4.218;2024-02-14T12:48:50;14.10;99.90
62912;DHT22;49111;51.028;4.218;2024-02-14T12:51:16;14.10;99.90
62912;DHT22;49111;51.028;4.218;2024-02-14T12:53:42;14.10;99.90
62912;DHT22;49111;51.028;4.218;2024-02-14T12:56:08;14.10;99.90
62912;DHT22;49111;51.028;4.218;2024-02-14T12:58:34;14.10;99.90
62912;DHT22;49111;51.028;4.218;2024-02-14T13:01:00;14.10;99.90
62912;DHT22;49111;51.028;4.218;2024-02-14T13:03:27;14.10;99.90
62912;DHT22;49111;51.028;4.218;2024-02-14T13:05:54;14.20;99.90
62912;DHT22;49111;51.028;4.218;2024-02-14T13:08:20;14.20;99.90
62912;DHT22;49111;51.028;4.218;2024-02-14T13:10:46;14.20;99.90
62912;DHT22;49111;51.028;4.218;2024-02-14T13:13:13;14.20;99.90
62912;DHT22;49111;51.028;4.218;2024-02-14T13:15:40;14.20;99.90
62912;DHT22;49111;51.028;4.218;2024-02-14T13:18:06;14.10;99.90
62912;DHT22;49111;51.028;4.218;2024-02-14T13:20:32;14.00;99.90
62912;DHT22;49111;51.028;4.218;2024-02-14T13:22:58;14.10;99.90
62912;DHT22;49111;51.028;4.218;2024-02-14T13:25:24;14.10;99.90
62912;DHT22;49111;51.028;4.218;2024-02-14T13:27:50;14.10;99.90
62912;DHT22;49111;51.028;4.218;2024-02-14T13:30:16;14.10;99.90
62912;DHT22;49111;51.028;4.218;2024-02-14T13:32:44;14.10;99.90
62912;DHT22;49111;51.028;4.218;2024-02-14T13:35:11;14.10;99.90
62912;DHT22;49111;51.028;4.218;2024-02-14T13:37:39;14.10;99.90
62912;DHT22;49111;51.028;4.218;2024-02-14T13:40:06;14.20;99.90
62912;DHT22;49111;51.028;4.218;2024-02-14T13:42:39;14.10;99.90
62912;DHT22;49111;51.028;4.218;2024-02-14T13:45:06;14.00;99.90
62912;DHT22;49111;51.028;4.218;2024-02-14T13:47:36;14.00;99.90
62912;DHT22;49111;51.028;4.218;2024-02-14T13:50:06;14.10;99.90
62912;DHT22;49111;51.028;4.218;2024-02-14T13:52:33;14.00;99.90
62912;DHT22;49111;51.028;4.218;2024-02-14T13:55:00;14.00;99.90
62912;DHT22;49111;51.028;4.218;2024-02-14T13:57:28;14.00;99.90
62912;DHT22;49111;51.028;4.218;2024-02-14T13:59:55;14.00;99.90
62912;DHT22;49111;51.028;4.218;2024-02-14T14:02:21;14.00;99.90
62912;DHT22;49111;51.028;4.218;2024-02-14T14:04:46;14.00;99.90
62912;DHT22;49111;51.028;4.218;2024-02-14T14:07:15;14.10;99.90
62912;DHT22;49111;51.028;4.218;2024-02-14T14:09:40;14.10;99.90
62912;DHT22;49111;51.028;4.218;2024-02-14T14:12:06;13.90;99.90
62912;DHT22;49111;51.028;4.218;2024-02-14T14:14:32;13.90;99.90
62912;DHT22;49111;51.028;4.218;2024-02-14T14:16:58;14.00;99.90
62912;DHT22;49111;51.028;4.218;2024-02-14T14:19:24;14.10;99.90
62912;DHT22;49111;51.028;4.218;2024-02-14T14:21:50;14.20;99.90
62912;DHT22;49111;51.028;4.218;2024-02-14T14:24:16;14.10;99.90
62912;DHT22;49111;51.028;4.218;2024-02-14T14:26:42;14.20;99.90
62912;DHT22;49111;51.028;4.218;2024-02-14T14:29:09;14.20;99.90
62912;DHT22;49111;51.028;4.218;2024-02-14T14:31:34;14.20;99.90
62912;DHT22;49111;51.028;4.218;2024-02-14T14:34:01;14.20;99.90
62912;DHT22;49111;51.028;4.218;2024-02-14T14:36:27;14.20;99.90
62912;DHT22;49111;51.028;4.218;2024-02-14T14:38:53;14.30;99.90
62912;DHT22;49111;51.028;4.218;2024-02-14T14:41:20;14.30;99.90
62912;DHT22;49111;51.028;4.218;2024-02-14T14:43:46;14.30;99.90
62912;DHT22;49111;51.028;4.218;2024-02-14T14:46:15;14.20;99.90
62912;DHT22;49111;51.028;4.218;2024-02-14T14:48:41;14.30;99.90
62912;DHT22;49111;51.028;4.218;2024-02-14T14:51:07;14.30;99.90
62912;DHT22;49111;51.028;4.218;2024-02-14T14:53:34;14.30;99.90
62912;DHT22;49111;51.028;4.218;2024-02-14T14:56:00;14.30;99.90
62912;DHT22;49111;51.028;4.218;2024-02-14T14:58:27;14.30;99.90
62912;DHT22;49111;51.028;4.218;2024-02-14T15:00:54;14.30;99.90
62912;DHT22;49111;51.028;4.218;2024-02-14T15:03:24;14.30;99.90
62912;DHT22;49111;51.028;4.218;2024-02-14T15:05:50;14.20;99.90
62912;DHT22;49111;51.028;4.218;2024-02-14T15:08:16;14.30;99.90
62912;DHT22;49111;51.028;4.218;2024-02-14T15:10:44;14.20;99.90
62912;DHT22;49111;51.028;4.218;2024-02-14T15:13:10;14.30;99.90
62912;DHT22;49111;51.028;4.218;2024-02-14T15:15:39;14.30;99.90
62912;DHT22;49111;51.028;4.218;2024-02-14T15:18:05;14.30;99.90
62912;DHT22;49111;51.028;4.218;2024-02-14T15:20:31;14.40;99.90
62912;DHT22;49111;51.028;4.218;2024-02-14T15:22:57;14.50;99.90
62912;DHT22;49111;51.028;4.218;2024-02-14T15:25:23;14.40;99.90
62912;DHT22;49111;51.028;4.218;2024-02-14T15:27:51;14.30;99.90